Airfield :
LOGIN :

Register | Disclaimer

   EN    FR    IT 

 










Legend :    VFR   Marginal VFR   IFR   Intensive IFR   Very Intensive IFR
Visi :
Ceiling :
>= 8 km
>= 3000ft
5 to 8 km
1000 to 3000 ft
1500m to 5 km
500 to 1000 ft
800 to 1500m
200 to 500 ft
< 800m
< 200 ft
Symbols :   Thunderstorms  Fog  Heavy snow  Heavy precipitations  Wind > 20 kt
SIGMETs :     Misc.  Thunderstorms  Icing  Turbulence  Mountain Waves  Volcanic Ashes







- Airport Elevation : 1188 ft


LKLN - Plzen Line

CURRENT METAR :
  • 170728Z AUTO 00000KT 0300 FG VV002 06/06 Q1026

EXPIRED METARs :
  • 170714Z AUTO VRB01KT 0300 FG VV001 06/06 Q1026
  • 170700Z AUTO 00000KT 1100 BR BKN001 OVC003 06/06 Q1026
  • 170653Z AUTO 00000KT 1400 BR BKN001 OVC005 05/05 Q1026
  • 170642Z AUTO 00000KT 0450 FG BKN001 OVC005 05/05 Q1026
  • 170612Z AUTO 00000KT 0400 FG BKN001 OVC004 05/05 Q1026
  • 170600Z AUTO VRB01KT 0250 FG VV002 04/04 Q1026
  • 170531Z AUTO VRB01KT 0200 FG VV002 05/05 Q1026
  • 170521Z AUTO 23001KT 0250 FG VV001 05/05 Q1026
  • 170511Z AUTO 00000KT 4900 BR BKN001 BKN004 05/05 Q1026
  • 170500Z AUTO 00000KT 4200 BR BKN001 04/04 Q1026
  • 170456Z AUTO 00000KT 4200 BR BKN001 04/04 Q1026

TAF N/A
No reported NOTAMs for that airfield.



MET'MAP, your aeronautical weather chart ! - Copyright ORBIFLY December 2007 - Disclaimer

ORBIFLY MET'MAP TEAM :

Programming & Development : Alexandra Zaïnal
Concept & Development : Baudouin d'Aumeries
Co-Development & Prog : Marc-Olivier Méhu
Technical & hardware support : Manuel Goepfert

Contact : metmap@orbifly.com




SOURCES & CREDITS :

   NOAA